sensor_id;sensor_type;location;lat;lon;timestamp;P1;durP1;ratioP1;P2;durP2;ratioP2
77738;SDS011;66904;59.926;30.404;2023-04-10T00:04:13;1.23;;;0.60;;
77738;SDS011;66904;59.926;30.404;2023-04-10T00:09:14;1.77;;;0.80;;
77738;SDS011;66904;59.926;30.404;2023-04-10T00:14:15;1.27;;;0.50;;
77738;SDS011;66904;59.926;30.404;2023-04-10T00:19:22;1.10;;;0.50;;
77738;SDS011;66904;59.926;30.404;2023-04-10T00:24:22;1.90;;;0.43;;
77738;SDS011;66904;59.926;30.404;2023-04-10T00:29:23;1.27;;;0.60;;
77738;SDS011;66904;59.926;30.404;2023-04-10T00:34:23;1.27;;;0.60;;
77738;SDS011;66904;59.926;30.404;2023-04-10T00:39:24;0.95;;;0.57;;
77738;SDS011;66904;59.926;30.404;2023-04-10T00:44:25;0.70;;;0.40;;
77738;SDS011;66904;59.926;30.404;2023-04-10T00:49:25;1.02;;;0.63;;
77738;SDS011;66904;59.926;30.404;2023-04-10T00:54:26;0.88;;;0.50;;
77738;SDS011;66904;59.926;30.404;2023-04-10T00:59:26;1.17;;;0.57;;
77738;SDS011;66904;59.926;30.404;2023-04-10T01:04:27;1.23;;;0.47;;
77738;SDS011;66904;59.926;30.404;2023-04-10T01:30:22;1.33;;;0.70;;
77738;SDS011;66904;59.926;30.404;2023-04-10T01:35:24;1.48;;;0.80;;
77738;SDS011;66904;59.926;30.404;2023-04-10T01:40:25;1.40;;;0.70;;
77738;SDS011;66904;59.926;30.404;2023-04-10T01:45:28;1.38;;;0.52;;
77738;SDS011;66904;59.926;30.404;2023-04-10T01:50:28;1.48;;;0.70;;
77738;SDS011;66904;59.926;30.404;2023-04-10T01:55:31;1.70;;;0.77;;
77738;SDS011;66904;59.926;30.404;2023-04-10T02:00:39;1.45;;;0.63;;
77738;SDS011;66904;59.926;30.404;2023-04-10T02:05:48;2.25;;;1.20;;
77738;SDS011;66904;59.926;30.404;2023-04-10T02:11:20;1.40;;;0.73;;
77738;SDS011;66904;59.926;30.404;2023-04-10T02:16:16;1.50;;;0.60;;
77738;SDS011;66904;59.926;30.404;2023-04-10T02:21:28;2.22;;;1.00;;
77738;SDS011;66904;59.926;30.404;2023-04-10T02:26:44;1.50;;;0.73;;
77738;SDS011;66904;59.926;30.404;2023-04-10T02:31:49;1.55;;;0.77;;
77738;SDS011;66904;59.926;30.404;2023-04-10T02:36:55;2.03;;;0.98;;
77738;SDS011;66904;59.926;30.404;2023-04-10T02:42:11;1.73;;;0.85;;
77738;SDS011;66904;59.926;30.404;2023-04-10T02:47:12;2.95;;;0.70;;
77738;SDS011;66904;59.926;30.404;2023-04-10T02:52:12;2.03;;;0.93;;
77738;SDS011;66904;59.926;30.404;2023-04-10T02:57:13;2.63;;;1.42;;
77738;SDS011;66904;59.926;30.404;2023-04-10T03:02:13;2.42;;;0.82;;
77738;SDS011;66904;59.926;30.404;2023-04-10T03:07:14;1.27;;;0.90;;
77738;SDS011;66904;59.926;30.404;2023-04-10T03:12:16;2.47;;;1.15;;
77738;SDS011;66904;59.926;30.404;2023-04-10T03:17:17;1.75;;;0.82;;
77738;SDS011;66904;59.926;30.404;2023-04-10T03:22:17;2.63;;;1.20;;
77738;SDS011;66904;59.926;30.404;2023-04-10T03:27:18;2.08;;;1.10;;
77738;SDS011;66904;59.926;30.404;2023-04-10T03:32:18;1.63;;;0.88;;
77738;SDS011;66904;59.926;30.404;2023-04-10T03:37:19;3.25;;;0.95;;
77738;SDS011;66904;59.926;30.404;2023-04-10T03:42:19;3.63;;;0.98;;
77738;SDS011;66904;59.926;30.404;2023-04-10T03:47:20;3.60;;;0.80;;
77738;SDS011;66904;59.926;30.404;2023-04-10T03:52:20;1.48;;;0.65;;
77738;SDS011;66904;59.926;30.404;2023-04-10T03:57:21;2.47;;;0.88;;
77738;SDS011;66904;59.926;30.404;2023-04-10T04:02:22;2.58;;;0.82;;
77738;SDS011;66904;59.926;30.404;2023-04-10T04:07:34;2.53;;;0.80;;
77738;SDS011;66904;59.926;30.404;2023-04-10T04:12:53;2.80;;;1.00;;
77738;SDS011;66904;59.926;30.404;2023-04-10T04:17:55;5.63;;;1.30;;
77738;SDS011;66904;59.926;30.404;2023-04-10T04:22:56;2.28;;;1.20;;
77738;SDS011;66904;59.926;30.404;2023-04-10T04:27:56;1.85;;;0.77;;
77738;SDS011;66904;59.926;30.404;2023-04-10T04:32:57;1.63;;;0.70;;
77738;SDS011;66904;59.926;30.404;2023-04-10T04:37:57;4.55;;;0.70;;
77738;SDS011;66904;59.926;30.404;2023-04-10T04:42:58;2.03;;;0.70;;
77738;SDS011;66904;59.926;30.404;2023-04-10T04:47:58;1.42;;;0.50;;
77738;SDS011;66904;59.926;30.404;2023-04-10T04:52:59;1.73;;;0.73;;
77738;SDS011;66904;59.926;30.404;2023-04-10T04:58:00;1.65;;;0.70;;
77738;SDS011;66904;59.926;30.404;2023-04-10T05:03:00;1.10;;;0.52;;
77738;SDS011;66904;59.926;30.404;2023-04-10T05:08:01;2.20;;;0.70;;
77738;SDS011;66904;59.926;30.404;2023-04-10T05:13:01;2.60;;;0.60;;
77738;SDS011;66904;59.926;30.404;2023-04-10T05:18:02;2.55;;;0.80;;
77738;SDS011;66904;59.926;30.404;2023-04-10T05:23:02;1.40;;;0.70;;
77738;SDS011;66904;59.926;30.404;2023-04-10T05:28:03;1.40;;;0.70;;
77738;SDS011;66904;59.926;30.404;2023-04-10T05:33:03;1.40;;;0.70;;
77738;SDS011;66904;59.926;30.404;2023-04-10T05:38:04;1.42;;;0.85;;
77738;SDS011;66904;59.926;30.404;2023-04-10T05:43:05;2.17;;;0.60;;
77738;SDS011;66904;59.926;30.404;2023-04-10T05:48:05;1.58;;;0.60;;
77738;SDS011;66904;59.926;30.404;2023-04-10T05:53:06;1.08;;;0.50;;
77738;SDS011;66904;59.926;30.404;2023-04-10T05:58:06;1.25;;;0.50;;
77738;SDS011;66904;59.926;30.404;2023-04-10T06:03:07;1.20;;;0.47;;
77738;SDS011;66904;59.926;30.404;2023-04-10T06:08:10;1.35;;;0.60;;
77738;SDS011;66904;59.926;30.404;2023-04-10T06:13:11;1.27;;;0.47;;
77738;SDS011;66904;59.926;30.404;2023-04-10T06:18:13;1.48;;;0.95;;
77738;SDS011;66904;59.926;30.404;2023-04-10T06:23:14;1.10;;;0.52;;
77738;SDS011;66904;59.926;30.404;2023-04-10T06:28:15;1.20;;;0.52;;
77738;SDS011;66904;59.926;30.404;2023-04-10T06:33:16;0.65;;;0.30;;
77738;SDS011;66904;59.926;30.404;2023-04-10T06:38:16;1.00;;;0.50;;
77738;SDS011;66904;59.926;30.404;2023-04-10T06:43:17;1.17;;;0.60;;
77738;SDS011;66904;59.926;30.404;2023-04-10T06:48:17;1.23;;;0.77;;
77738;SDS011;66904;59.926;30.404;2023-04-10T06:53:18;1.52;;;0.50;;
77738;SDS011;66904;59.926;30.404;2023-04-10T06:58:18;1.15;;;0.60;;
77738;SDS011;66904;59.926;30.404;2023-04-10T07:03:19;1.70;;;1.00;;
77738;SDS011;66904;59.926;30.404;2023-04-10T07:08:20;1.05;;;0.57;;
77738;SDS011;66904;59.926;30.404;2023-04-10T07:13:20;1.63;;;0.60;;
77738;SDS011;66904;59.926;30.404;2023-04-10T07:18:21;2.13;;;0.60;;
77738;SDS011;66904;59.926;30.404;2023-04-10T07:23:21;1.52;;;0.50;;
77738;SDS011;66904;59.926;30.404;2023-04-10T07:28:22;2.67;;;0.50;;
77738;SDS011;66904;59.926;30.404;2023-04-10T07:33:22;0.63;;;0.30;;
77738;SDS011;66904;59.926;30.404;2023-04-10T07:38:23;0.85;;;0.40;;
77738;SDS011;66904;59.926;30.404;2023-04-10T07:43:24;2.65;;;0.45;;
77738;SDS011;66904;59.926;30.404;2023-04-10T07:48:25;0.77;;;0.43;;
77738;SDS011;66904;59.926;30.404;2023-04-10T07:53:26;0.87;;;0.50;;
77738;SDS011;66904;59.926;30.404;2023-04-10T07:58:26;0.68;;;0.30;;
77738;SDS011;66904;59.926;30.404;2023-04-10T08:03:27;1.00;;;0.40;;
77738;SDS011;66904;59.926;30.404;2023-04-10T08:08:28;2.10;;;0.50;;
77738;SDS011;66904;59.926;30.404;2023-04-10T08:13:28;1.00;;;0.43;;
77738;SDS011;66904;59.926;30.404;2023-04-10T08:18:29;0.80;;;0.40;;
77738;SDS011;66904;59.926;30.404;2023-04-10T08:23:29;0.82;;;0.57;;
77738;SDS011;66904;59.926;30.404;2023-04-10T08:28:29;1.50;;;0.40;;
77738;SDS011;66904;59.926;30.404;2023-04-10T08:33:31;0.93;;;0.43;;
77738;SDS011;66904;59.926;30.404;2023-04-10T08:38:32;1.20;;;0.20;;
77738;SDS011;66904;59.926;30.404;2023-04-10T08:43:32;1.10;;;0.60;;
77738;SDS011;66904;59.926;30.404;2023-04-10T08:48:37;0.70;;;0.20;;
77738;SDS011;66904;59.926;30.404;2023-04-10T08:58:43;0.60;;;0.38;;
77738;SDS011;66904;59.926;30.404;2023-04-10T09:03:45;0.93;;;0.40;;
77738;SDS011;66904;59.926;30.404;2023-04-10T09:08:47;0.93;;;0.40;;
77738;SDS011;66904;59.926;30.404;2023-04-10T09:13:47;1.40;;;0.50;;
77738;SDS011;66904;59.926;30.404;2023-04-10T09:18:48;0.85;;;0.60;;
77738;SDS011;66904;59.926;30.404;2023-04-10T09:23:58;0.98;;;0.40;;
77738;SDS011;66904;59.926;30.404;2023-04-10T09:29:06;0.75;;;0.32;;
77738;SDS011;66904;59.926;30.404;2023-04-10T09:34:10;1.17;;;0.60;;
77738;SDS011;66904;59.926;30.404;2023-04-10T09:39:12;0.85;;;0.40;;
77738;SDS011;66904;59.926;30.404;2023-04-10T09:44:13;1.38;;;0.70;;
77738;SDS011;66904;59.926;30.404;2023-04-10T09:49:16;0.93;;;0.52;;
77738;SDS011;66904;59.926;30.404;2023-04-10T09:54:16;0.60;;;0.28;;
77738;SDS011;66904;59.926;30.404;2023-04-10T09:59:17;0.85;;;0.50;;
77738;SDS011;66904;59.926;30.404;2023-04-10T10:04:18;0.98;;;0.25;;
77738;SDS011;66904;59.926;30.404;2023-04-10T10:09:19;1.80;;;0.75;;
77738;SDS011;66904;59.926;30.404;2023-04-10T10:14:20;0.47;;;0.30;;
77738;SDS011;66904;59.926;30.404;2023-04-10T10:19:30;0.73;;;0.40;;
77738;SDS011;66904;59.926;30.404;2023-04-10T10:24:37;0.52;;;0.30;;
77738;SDS011;66904;59.926;30.404;2023-04-10T10:29:45;1.05;;;0.60;;
77738;SDS011;66904;59.926;30.404;2023-04-10T10:34:49;0.80;;;0.38;;
77738;SDS011;66904;59.926;30.404;2023-04-10T10:46:05;0.95;;;0.80;;
77738;SDS011;66904;59.926;30.404;2023-04-10T10:50:49;0.85;;;0.30;;
77738;SDS011;66904;59.926;30.404;2023-04-10T10:55:57;0.90;;;0.40;;
77738;SDS011;66904;59.926;30.404;2023-04-10T11:06:08;0.70;;;0.50;;
77738;SDS011;66904;59.926;30.404;2023-04-10T11:11:15;0.88;;;0.52;;
77738;SDS011;66904;59.926;30.404;2023-04-10T11:16:21;0.82;;;0.38;;
77738;SDS011;66904;59.926;30.404;2023-04-10T11:27:00;1.00;;;0.63;;
77738;SDS011;66904;59.926;30.404;2023-04-10T11:32:02;1.08;;;0.50;;
77738;SDS011;66904;59.926;30.404;2023-04-10T11:37:04;0.80;;;0.40;;
77738;SDS011;66904;59.926;30.404;2023-04-10T11:42:06;1.00;;;0.40;;
77738;SDS011;66904;59.926;30.404;2023-04-10T11:47:10;1.20;;;0.50;;
77738;SDS011;66904;59.926;30.404;2023-04-10T11:52:11;2.13;;;1.25;;
77738;SDS011;66904;59.926;30.404;2023-04-10T11:57:12;1.60;;;1.02;;
77738;SDS011;66904;59.926;30.404;2023-04-10T12:02:13;1.70;;;1.20;;
77738;SDS011;66904;59.926;30.404;2023-04-10T12:07:14;1.98;;;1.33;;
77738;SDS011;66904;59.926;30.404;2023-04-10T12:12:15;1.75;;;1.15;;
77738;SDS011;66904;59.926;30.404;2023-04-10T12:17:16;2.10;;;1.25;;
77738;SDS011;66904;59.926;30.404;2023-04-10T12:22:16;1.70;;;1.02;;
77738;SDS011;66904;59.926;30.404;2023-04-10T12:27:26;1.67;;;1.10;;
77738;SDS011;66904;59.926;30.404;2023-04-10T12:32:27;2.03;;;1.10;;
77738;SDS011;66904;59.926;30.404;2023-04-10T12:42:51;1.50;;;1.10;;
77738;SDS011;66904;59.926;30.404;2023-04-10T12:47:51;2.47;;;1.17;;
77738;SDS011;66904;59.926;30.404;2023-04-10T12:53:02;2.25;;;1.20;;
77738;SDS011;66904;59.926;30.404;2023-04-10T12:58:19;2.03;;;1.02;;
77738;SDS011;66904;59.926;30.404;2023-04-10T13:03:20;2.00;;;1.10;;
77738;SDS011;66904;59.926;30.404;2023-04-10T13:08:21;1.30;;;0.90;;
77738;SDS011;66904;59.926;30.404;2023-04-10T13:13:22;1.27;;;0.75;;
77738;SDS011;66904;59.926;30.404;2023-04-10T13:18:23;0.85;;;0.52;;
77738;SDS011;66904;59.926;30.404;2023-04-10T13:23:24;2.22;;;0.55;;
77738;SDS011;66904;59.926;30.404;2023-04-10T13:28:25;1.20;;;0.77;;
77738;SDS011;66904;59.926;30.404;2023-04-10T13:33:25;1.23;;;0.68;;
77738;SDS011;66904;59.926;30.404;2023-04-10T13:38:26;1.23;;;0.77;;
77738;SDS011;66904;59.926;30.404;2023-04-10T13:43:26;1.48;;;0.60;;
77738;SDS011;66904;59.926;30.404;2023-04-10T13:48:27;1.58;;;0.70;;
77738;SDS011;66904;59.926;30.404;2023-04-10T13:53:27;1.03;;;0.73;;
77738;SDS011;66904;59.926;30.404;2023-04-10T13:58:28;1.40;;;0.88;;
77738;SDS011;66904;59.926;30.404;2023-04-10T14:03:30;1.83;;;0.82;;
77738;SDS011;66904;59.926;30.404;2023-04-10T14:08:31;2.70;;;0.85;;
77738;SDS011;66904;59.926;30.404;2023-04-10T14:13:31;0.82;;;0.57;;
77738;SDS011;66904;59.926;30.404;2023-04-10T14:18:32;1.67;;;0.73;;
77738;SDS011;66904;59.926;30.404;2023-04-10T14:23:32;0.77;;;0.63;;
77738;SDS011;66904;59.926;30.404;2023-04-10T14:28:33;1.05;;;0.50;;
77738;SDS011;66904;59.926;30.404;2023-04-10T14:33:34;1.25;;;0.80;;
77738;SDS011;66904;59.926;30.404;2023-04-10T14:38:35;2.80;;;0.70;;
77738;SDS011;66904;59.926;30.404;2023-04-10T14:43:39;0.93;;;0.50;;
77738;SDS011;66904;59.926;30.404;2023-04-10T14:48:39;1.20;;;0.60;;
77738;SDS011;66904;59.926;30.404;2023-04-10T14:53:40;1.25;;;0.70;;
77738;SDS011;66904;59.926;30.404;2023-04-10T14:58:40;1.33;;;0.50;;
77738;SDS011;66904;59.926;30.404;2023-04-10T15:03:45;4.07;;;1.45;;
77738;SDS011;66904;59.926;30.404;2023-04-10T15:08:46;423.98;;;258.23;;
77738;SDS011;66904;59.926;30.404;2023-04-10T15:13:47;309.30;;;173.93;;
77738;SDS011;66904;59.926;30.404;2023-04-10T15:18:47;149.10;;;87.75;;
77738;SDS011;66904;59.926;30.404;2023-04-10T15:23:48;89.30;;;55.65;;
77738;SDS011;66904;59.926;30.404;2023-04-10T15:28:49;68.18;;;45.03;;
77738;SDS011;66904;59.926;30.404;2023-04-10T15:33:50;53.60;;;33.42;;
77738;SDS011;66904;59.926;30.404;2023-04-10T15:38:51;41.78;;;27.65;;
77738;SDS011;66904;59.926;30.404;2023-04-10T15:43:52;40.10;;;24.90;;
77738;SDS011;66904;59.926;30.404;2023-04-10T15:48:52;32.88;;;20.48;;
77738;SDS011;66904;59.926;30.404;2023-04-10T15:53:53;29.73;;;18.20;;
77738;SDS011;66904;59.926;30.404;2023-04-10T15:58:53;25.15;;;15.48;;
77738;SDS011;66904;59.926;30.404;2023-04-10T16:03:54;25.35;;;15.48;;
77738;SDS011;66904;59.926;30.404;2023-04-10T16:08:55;19.77;;;11.82;;
77738;SDS011;66904;59.926;30.404;2023-04-10T16:13:55;16.80;;;10.43;;
77738;SDS011;66904;59.926;30.404;2023-04-10T16:18:56;15.82;;;9.75;;
77738;SDS011;66904;59.926;30.404;2023-04-10T16:23:57;15.90;;;8.88;;
77738;SDS011;66904;59.926;30.404;2023-04-10T16:28:57;11.93;;;8.07;;
77738;SDS011;66904;59.926;30.404;2023-04-10T16:33:58;10.70;;;5.93;;
77738;SDS011;66904;59.926;30.404;2023-04-10T16:39:00;9.55;;;5.88;;
77738;SDS011;66904;59.926;30.404;2023-04-10T16:44:00;11.30;;;5.78;;
77738;SDS011;66904;59.926;30.404;2023-04-10T16:49:01;12.50;;;4.82;;
77738;SDS011;66904;59.926;30.404;2023-04-10T16:54:02;9.15;;;4.88;;
77738;SDS011;66904;59.926;30.404;2023-04-10T16:59:02;7.97;;;4.45;;
77738;SDS011;66904;59.926;30.404;2023-04-10T17:04:03;7.55;;;4.18;;
77738;SDS011;66904;59.926;30.404;2023-04-10T17:09:04;6.10;;;3.17;;
77738;SDS011;66904;59.926;30.404;2023-04-10T17:14:05;5.85;;;2.58;;
77738;SDS011;66904;59.926;30.404;2023-04-10T17:19:06;3.97;;;2.28;;
77738;SDS011;66904;59.926;30.404;2023-04-10T17:24:07;3.63;;;2.13;;
77738;SDS011;66904;59.926;30.404;2023-04-10T17:29:07;2.90;;;1.73;;
77738;SDS011;66904;59.926;30.404;2023-04-10T17:34:08;2.92;;;2.22;;
77738;SDS011;66904;59.926;30.404;2023-04-10T17:39:08;4.32;;;1.92;;
77738;SDS011;66904;59.926;30.404;2023-04-10T17:44:09;2.97;;;1.83;;
77738;SDS011;66904;59.926;30.404;2023-04-10T17:49:10;3.00;;;1.50;;
77738;SDS011;66904;59.926;30.404;2023-04-10T17:54:10;3.17;;;1.90;;
77738;SDS011;66904;59.926;30.404;2023-04-10T17:59:11;3.20;;;1.23;;
77738;SDS011;66904;59.926;30.404;2023-04-10T18:04:12;2.88;;;1.27;;
77738;SDS011;66904;59.926;30.404;2023-04-10T18:09:13;2.90;;;1.27;;
77738;SDS011;66904;59.926;30.404;2023-04-10T18:14:14;1.65;;;1.30;;
77738;SDS011;66904;59.926;30.404;2023-04-10T18:19:14;4.20;;;1.38;;
77738;SDS011;66904;59.926;30.404;2023-04-10T18:24:15;3.13;;;1.20;;
77738;SDS011;66904;59.926;30.404;2023-04-10T18:29:18;1.52;;;0.70;;
77738;SDS011;66904;59.926;30.404;2023-04-10T18:34:19;6.97;;;0.90;;
77738;SDS011;66904;59.926;30.404;2023-04-10T18:39:19;1.70;;;0.68;;
77738;SDS011;66904;59.926;30.404;2023-04-10T18:44:20;4.53;;;0.90;;
77738;SDS011;66904;59.926;30.404;2023-04-10T18:49:20;2.67;;;0.68;;
77738;SDS011;66904;59.926;30.404;2023-04-10T18:54:21;1.20;;;0.60;;
77738;SDS011;66904;59.926;30.404;2023-04-10T18:59:22;2.88;;;0.90;;
77738;SDS011;66904;59.926;30.404;2023-04-10T19:04:23;2.22;;;0.70;;
77738;SDS011;66904;59.926;30.404;2023-04-10T19:09:23;1.63;;;1.00;;
77738;SDS011;66904;59.926;30.404;2023-04-10T19:14:24;2.58;;;0.73;;
77738;SDS011;66904;59.926;30.404;2023-04-10T19:19:25;3.35;;;0.88;;
77738;SDS011;66904;59.926;30.404;2023-04-10T19:24:25;5.35;;;0.90;;
77738;SDS011;66904;59.926;30.404;2023-04-10T19:29:26;1.77;;;0.60;;
77738;SDS011;66904;59.926;30.404;2023-04-10T19:34:27;6.10;;;1.08;;
77738;SDS011;66904;59.926;30.404;2023-04-10T19:39:27;1.35;;;1.00;;
77738;SDS011;66904;59.926;30.404;2023-04-10T19:44:28;2.28;;;0.80;;
77738;SDS011;66904;59.926;30.404;2023-04-10T19:49:32;1.63;;;0.90;;
77738;SDS011;66904;59.926;30.404;2023-04-10T19:54:33;1.67;;;0.52;;
77738;SDS011;66904;59.926;30.404;2023-04-10T19:59:34;1.73;;;0.77;;
77738;SDS011;66904;59.926;30.404;2023-04-10T20:04:35;1.60;;;0.75;;
77738;SDS011;66904;59.926;30.404;2023-04-10T20:09:36;4.43;;;0.73;;
77738;SDS011;66904;59.926;30.404;2023-04-10T20:14:37;2.33;;;0.95;;
77738;SDS011;66904;59.926;30.404;2023-04-10T20:19:37;2.08;;;0.95;;
77738;SDS011;66904;59.926;30.404;2023-04-10T20:24:38;3.13;;;1.65;;
77738;SDS011;66904;59.926;30.404;2023-04-10T20:29:38;3.90;;;1.50;;
77738;SDS011;66904;59.926;30.404;2023-04-10T20:34:39;2.08;;;0.90;;
77738;SDS011;66904;59.926;30.404;2023-04-10T20:39:40;2.10;;;1.15;;
77738;SDS011;66904;59.926;30.404;2023-04-10T20:44:40;3.22;;;1.40;;
77738;SDS011;66904;59.926;30.404;2023-04-10T20:49:41;2.25;;;1.23;;
77738;SDS011;66904;59.926;30.404;2023-04-10T20:54:41;3.63;;;1.55;;
77738;SDS011;66904;59.926;30.404;2023-04-10T20:59:42;1.77;;;1.10;;
77738;SDS011;66904;59.926;30.404;2023-04-10T21:04:43;2.75;;;1.17;;
77738;SDS011;66904;59.926;30.404;2023-04-10T21:09:44;2.20;;;1.40;;
77738;SDS011;66904;59.926;30.404;2023-04-10T21:14:45;3.05;;;1.40;;
77738;SDS011;66904;59.926;30.404;2023-04-10T21:19:45;4.13;;;1.13;;
77738;SDS011;66904;59.926;30.404;2023-04-10T21:24:46;2.15;;;1.17;;
77738;SDS011;66904;59.926;30.404;2023-04-10T21:29:46;3.45;;;1.42;;
77738;SDS011;66904;59.926;30.404;2023-04-10T21:34:47;2.47;;;0.98;;
77738;SDS011;66904;59.926;30.404;2023-04-10T21:39:47;2.03;;;1.10;;
77738;SDS011;66904;59.926;30.404;2023-04-10T21:44:48;2.75;;;1.20;;
77738;SDS011;66904;59.926;30.404;2023-04-10T21:49:49;2.20;;;0.88;;
77738;SDS011;66904;59.926;30.404;2023-04-10T21:54:49;1.67;;;0.82;;
77738;SDS011;66904;59.926;30.404;2023-04-10T21:59:51;3.15;;;0.90;;
77738;SDS011;66904;59.926;30.404;2023-04-10T22:04:51;3.85;;;1.38;;
77738;SDS011;66904;59.926;30.404;2023-04-10T22:09:52;3.00;;;1.10;;
77738;SDS011;66904;59.926;30.404;2023-04-10T22:14:52;3.08;;;1.30;;
77738;SDS011;66904;59.926;30.404;2023-04-10T22:19:53;2.13;;;1.00;;
77738;SDS011;66904;59.926;30.404;2023-04-10T22:24:53;1.85;;;1.25;;
77738;SDS011;66904;59.926;30.404;2023-04-10T22:29:54;1.98;;;1.05;;
77738;SDS011;66904;59.926;30.404;2023-04-10T22:34:54;1.42;;;1.00;;
77738;SDS011;66904;59.926;30.404;2023-04-10T22:39:57;1.70;;;0.95;;
77738;SDS011;66904;59.926;30.404;2023-04-10T22:44:59;2.00;;;1.17;;
77738;SDS011;66904;59.926;30.404;2023-04-10T22:50:00;1.38;;;0.65;;
77738;SDS011;66904;59.926;30.404;2023-04-10T22:55:01;1.50;;;0.80;;
77738;SDS011;66904;59.926;30.404;2023-04-10T23:00:05;1.73;;;1.00;;
77738;SDS011;66904;59.926;30.404;2023-04-10T23:05:25;1.77;;;1.10;;
77738;SDS011;66904;59.926;30.404;2023-04-10T23:10:26;1.92;;;0.80;;
77738;SDS011;66904;59.926;30.404;2023-04-10T23:15:27;2.80;;;1.20;;
77738;SDS011;66904;59.926;30.404;2023-04-10T23:20:27;3.58;;;0.95;;
77738;SDS011;66904;59.926;30.404;2023-04-10T23:25:28;2.03;;;0.82;;
77738;SDS011;66904;59.926;30.404;2023-04-10T23:30:29;2.17;;;1.00;;
77738;SDS011;66904;59.926;30.404;2023-04-10T23:35:30;1.33;;;0.80;;
77738;SDS011;66904;59.926;30.404;2023-04-10T23:40:31;1.83;;;1.23;;
77738;SDS011;66904;59.926;30.404;2023-04-10T23:51:25;2.15;;;0.77;;
77738;SDS011;66904;59.926;30.404;2023-04-10T23:56:26;3.40;;;1.80;;
